Time;durP1;ratioP1;P1;durP2;ratioP2;P2;SDS_P1;SDS_P2;PMS_P1;PMS_P2;Temp;Humidity;BMP_temperature;BMP_pressure;BME280_temperature;BME280_humidity;BME280_pressure;Samples;Min_cycle;Max_cycle;Signal;HPM_P1;HPM_P2
2020/12/12 00:00:00;;;;;;;15.37;11.20;;;9.40;99.90;;;;;;4903936;29;20177;-88
2020/12/12 00:02:30;;;;;;;12.93;9.70;;;9.50;99.90;;;;;;4903600;29;20644;-81
2020/12/12 00:04:59;;;;;;;11.37;9.93;;;9.60;99.90;;;;;;4908167;29;20182;-84
2020/12/12 00:07:25;;;;;;;13.47;9.93;;;9.50;99.90;;;;;;4903705;29;20184;-89
2020/12/12 00:09:51;;;;;;;12.40;9.57;;;9.50;99.90;;;;;;4902852;29;20206;-80
2020/12/12 00:12:17;;;;;;;12.57;9.57;;;9.40;99.90;;;;;;4901304;29;20519;-82
2020/12/12 00:14:43;;;;;;;11.53;9.07;;;9.40;99.90;;;;;;4902159;29;20308;-84
2020/12/12 00:17:09;;;;;;;12.33;9.70;;;9.50;99.90;;;;;;4900715;29;20201;-81
2020/12/12 00:19:35;;;;;;;11.63;9.70;;;9.40;99.90;;;;;;4900138;29;20205;-84
2020/12/12 00:22:04;;;;;;;15.27;10.10;;;9.50;99.90;;;;;;4905134;29;20174;-83
2020/12/12 00:24:30;;;;;;;13.03;10.50;;;9.60;99.90;;;;;;4915780;29;20174;-87
2020/12/12 00:26:56;;;;;;;13.57;10.10;;;9.60;99.90;;;;;;4900857;29;20710;-80
2020/12/12 00:29:22;;;;;;;13.07;10.77;;;9.70;99.90;;;;;;4894800;29;20193;-80
2020/12/12 00:31:54;;;;;;;13.17;9.90;;;9.70;99.90;;;;;;4880530;29;20230;-80
2020/12/12 00:34:21;;;;;;;13.77;10.07;;;9.60;99.90;;;;;;4878694;29;20202;-81
2020/12/12 00:36:49;;;;;;;12.23;9.77;;;9.70;99.90;;;;;;4867636;29;20551;-82
2020/12/12 00:39:15;;;;;;;12.50;9.63;;;9.70;99.90;;;;;;4882874;29;20614;-81
2020/12/12 00:41:41;;;;;;;13.50;10.07;;;9.80;99.90;;;;;;4879942;29;20171;-80
2020/12/12 00:44:08;;;;;;;14.53;10.30;;;9.90;99.90;;;;;;4894546;29;20598;-81
2020/12/12 00:46:36;;;;;;;14.27;10.40;;;9.80;99.90;;;;;;4878905;29;20171;-84
2020/12/12 00:49:03;;;;;;;13.37;9.77;;;9.70;99.90;;;;;;4881535;29;20242;-83
2020/12/12 00:51:28;;;;;;;18.57;11.07;;;9.70;99.90;;;;;;4886770;29;20175;-79
2020/12/12 00:53:54;;;;;;;12.33;10.20;;;9.90;99.90;;;;;;4885624;29;20237;-80
2020/12/12 00:56:21;;;;;;;15.13;10.63;;;10.00;99.90;;;;;;4888182;29;20161;-79
2020/12/12 00:58:47;;;;;;;14.17;10.77;;;10.00;99.90;;;;;;4889426;29;20173;-91
2020/12/12 01:01:14;;;;;;;16.37;11.23;;;10.00;99.90;;;;;;4874713;29;20251;-89
2020/12/12 01:03:43;;;;;;;14.47;10.83;;;9.90;99.90;;;;;;4895382;29;20171;-86
2020/12/12 01:06:10;;;;;;;16.83;10.77;;;9.90;99.90;;;;;;4900062;29;20156;-79
2020/12/12 01:08:37;;;;;;;13.40;10.77;;;9.80;99.90;;;;;;4898093;29;20170;-79
2020/12/12 01:11:04;;;;;;;17.97;12.00;;;9.80;99.90;;;;;;4901212;29;20235;-79
2020/12/12 01:13:31;;;;;;;20.60;11.27;;;9.70;99.90;;;;;;4890141;29;20211;-79
2020/12/12 01:16:04;;;;;;;20.53;11.77;;;9.60;99.90;;;;;;4889610;29;20216;-80
2020/12/12 01:18:29;;;;;;;20.97;13.03;;;9.60;99.90;;;;;;4889429;29;20194;-80
2020/12/12 01:20:55;;;;;;;19.23;12.37;;;9.50;99.90;;;;;;4886074;29;20667;-80
2020/12/12 01:23:24;;;;;;;20.53;11.97;;;9.50;99.90;;;;;;4885136;29;20182;-80
2020/12/12 01:25:49;;;;;;;18.83;12.90;;;9.50;99.90;;;;;;4918801;29;20264;-85
2020/12/12 01:28:17;;;;;;;19.20;13.13;;;9.50;99.90;;;;;;4938202;29;20157;-88
2020/12/12 01:30:52;;;;;;;19.57;12.23;;;9.50;99.90;;;;;;4922676;29;20169;-90
2020/12/12 01:33:18;;;;;;;23.13;12.83;;;9.50;99.90;;;;;;4921579;29;20693;-88
2020/12/12 01:35:44;;;;;;;23.37;14.33;;;9.50;99.90;;;;;;4921466;29;20652;-79
2020/12/12 01:38:10;;;;;;;21.60;14.17;;;9.40;99.90;;;;;;4920563;29;20260;-87
2020/12/12 01:40:37;;;;;;;23.07;13.33;;;9.40;99.90;;;;;;4920881;29;20752;-87
2020/12/12 01:43:03;;;;;;;20.30;13.23;;;9.40;99.90;;;;;;4918549;29;20181;-83
2020/12/12 01:45:29;;;;;;;22.20;13.93;;;9.50;99.90;;;;;;4920195;29;20229;-80
2020/12/12 01:47:55;;;;;;;24.87;13.73;;;9.60;99.90;;;;;;4919155;29;20197;-80
2020/12/12 01:50:21;;;;;;;27.27;14.90;;;9.60;99.90;;;;;;4919687;29;20292;-81
2020/12/12 01:52:50;;;;;;;20.27;13.90;;;9.60;99.90;;;;;;4922122;29;20706;-83
2020/12/12 01:55:18;;;;;;;25.07;14.73;;;9.60;99.90;;;;;;4920885;29;20177;-80
2020/12/12 01:57:47;;;;;;;25.87;15.13;;;9.60;99.90;;;;;;4919552;29;20226;-82
2020/12/12 02:00:13;;;;;;;28.00;16.83;;;9.50;99.90;;;;;;4920226;29;20173;-80
2020/12/12 02:02:41;;;;;;;24.37;14.37;;;9.60;99.90;;;;;;4919696;29;20225;-82
2020/12/12 02:05:37;;;;;;;26.63;15.37;;;9.50;99.90;;;;;;4919845;29;20166;-80
2020/12/12 02:08:00;;;;;;;22.70;14.87;;;9.50;99.90;;;;;;4919805;29;20638;-79
2020/12/12 02:10:26;;;;;;;31.33;15.27;;;9.50;99.90;;;;;;4921868;29;20233;-79
2020/12/12 02:12:52;;;;;;;32.67;16.63;;;9.50;99.90;;;;;;4921427;29;20205;-81
2020/12/12 02:15:17;;;;;;;31.73;16.43;;;9.50;99.90;;;;;;4924893;29;20189;-80
2020/12/12 02:17:46;;;;;;;26.97;16.50;;;9.60;99.90;;;;;;4925111;29;20197;-83
2020/12/12 02:20:11;;;;;;;32.17;18.33;;;9.70;99.90;;;;;;4927185;29;20194;-78
2020/12/12 02:22:37;;;;;;;30.30;16.57;;;9.80;99.90;;;;;;4925835;29;20177;-79
2020/12/12 02:25:02;;;;;;;31.70;17.97;;;9.60;99.90;;;;;;4915217;29;20185;-79
2020/12/12 02:27:28;;;;;;;28.77;17.60;;;9.60;99.90;;;;;;4902798;29;20167;-81
2020/12/12 02:29:54;;;;;;;29.93;17.70;;;9.50;99.90;;;;;;4903436;29;20253;-80
2020/12/12 02:32:21;;;;;;;30.10;16.40;;;9.50;99.90;;;;;;4905058;29;20230;-79
2020/12/12 02:34:47;;;;;;;29.83;17.30;;;9.40;99.90;;;;;;4904433;29;20206;-80
2020/12/12 02:37:16;;;;;;;27.03;16.57;;;9.40;99.90;;;;;;4905187;29;20178;-83
2020/12/12 02:39:42;;;;;;;28.50;17.50;;;9.30;99.90;;;;;;4900699;29;20209;-83
2020/12/12 02:42:08;;;;;;;31.57;18.53;;;9.30;99.90;;;;;;4899630;29;20177;-82
2020/12/12 02:44:35;;;;;;;35.53;18.30;;;9.30;99.90;;;;;;4907043;29;20170;-80
2020/12/12 02:47:00;;;;;;;39.33;18.33;;;9.30;99.90;;;;;;4907907;29;20186;-79
2020/12/12 02:49:26;;;;;;;26.83;17.07;;;9.40;99.90;;;;;;4910102;29;20647;-79
2020/12/12 02:51:52;;;;;;;25.97;16.27;;;9.40;99.90;;;;;;4909537;29;20257;-80
2020/12/12 02:54:17;;;;;;;31.40;17.90;;;9.40;99.90;;;;;;4908327;29;20270;-80
2020/12/12 02:56:43;;;;;;;35.33;17.37;;;9.40;99.90;;;;;;4909470;29;20222;-82
2020/12/12 02:59:09;;;;;;;27.43;17.50;;;9.50;99.90;;;;;;4908250;29;20178;-80
2020/12/12 03:01:39;;;;;;;30.50;17.07;;;9.40;99.90;;;;;;4907988;29;20174;-85
2020/12/12 03:04:04;;;;;;;38.07;18.90;;;9.40;99.90;;;;;;4907580;29;20182;-80
2020/12/12 03:06:30;;;;;;;29.37;17.10;;;9.50;99.90;;;;;;4903153;29;20186;-84
2020/12/12 03:08:56;;;;;;;32.93;18.13;;;9.40;99.90;;;;;;4900744;29;20183;-79
2020/12/12 03:11:21;;;;;;;36.97;17.73;;;9.50;99.90;;;;;;4901733;29;20175;-87
2020/12/12 03:13:47;;;;;;;34.33;18.33;;;9.60;99.90;;;;;;4901329;29;20224;-79
2020/12/12 03:16:12;;;;;;;34.50;16.67;;;9.50;99.90;;;;;;4901233;29;20185;-88
2020/12/12 03:18:38;;;;;;;33.43;16.73;;;9.60;99.90;;;;;;4914746;29;20269;-79
2020/12/12 03:21:04;;;;;;;27.97;16.67;;;9.50;99.90;;;;;;4920851;29;20163;-78
2020/12/12 03:23:29;;;;;;;32.53;16.97;;;9.60;99.90;;;;;;4921155;29;20178;-79
2020/12/12 03:25:55;;;;;;;31.83;16.00;;;9.50;99.90;;;;;;4940120;28;20166;-78
2020/12/12 03:28:21;;;;;;;35.43;17.43;;;9.50;99.90;;;;;;4925198;29;20649;-78
2020/12/12 03:30:52;;;;;;;30.63;16.27;;;9.50;99.90;;;;;;4926853;29;20170;-78
2020/12/12 03:33:18;;;;;;;31.53;15.80;;;9.50;99.90;;;;;;4924964;29;20197;-79
2020/12/12 03:35:44;;;;;;;31.60;15.67;;;9.50;99.90;;;;;;4920873;29;20519;-84
2020/12/12 03:38:09;;;;;;;30.77;16.07;;;9.60;99.90;;;;;;4921198;29;20177;-78
2020/12/12 03:40:35;;;;;;;34.63;15.10;;;9.60;99.90;;;;;;4926784;29;20657;-77
2020/12/12 03:43:01;;;;;;;29.90;16.80;;;9.60;99.90;;;;;;4926140;29;20174;-78
2020/12/12 03:45:26;;;;;;;30.73;15.93;;;9.70;99.90;;;;;;4928109;29;20177;-78
2020/12/12 03:47:52;;;;;;;32.93;15.70;;;9.80;99.90;;;;;;4932156;29;20245;-80
2020/12/12 03:50:17;;;;;;;36.47;15.80;;;9.70;99.90;;;;;;4929093;29;20273;-78
2020/12/12 03:52:43;;;;;;;37.23;16.60;;;9.70;99.90;;;;;;4925729;29;20177;-79
2020/12/12 03:55:09;;;;;;;37.80;16.87;;;9.60;99.90;;;;;;4920890;29;20170;-79
2020/12/12 03:57:37;;;;;;;34.27;16.37;;;9.60;99.90;;;;;;4924362;29;20174;-79
2020/12/12 04:00:04;;;;;;;29.07;17.07;;;9.60;99.90;;;;;;4932265;29;20181;-79
2020/12/12 04:02:31;;;;;;;32.00;15.90;;;9.60;99.90;;;;;;4930058;29;20185;-83
2020/12/12 04:04:57;;;;;;;37.70;17.60;;;9.60;99.90;;;;;;4924793;29;20274;-79
2020/12/12 04:07:22;;;;;;;37.00;16.83;;;9.60;99.90;;;;;;4925303;29;20241;-79
2020/12/12 04:09:48;;;;;;;35.40;16.53;;;9.70;99.90;;;;;;4930331;28;20177;-79
2020/12/12 04:12:13;;;;;;;36.47;16.90;;;9.70;99.90;;;;;;4935515;28;20189;-79
2020/12/12 04:14:39;;;;;;;33.63;17.33;;;9.70;99.90;;;;;;4924215;29;20236;-78
2020/12/12 04:17:06;;;;;;;37.83;16.50;;;9.70;99.90;;;;;;4920870;29;20539;-79
2020/12/12 04:19:31;;;;;;;36.37;17.40;;;9.60;99.90;;;;;;4920701;29;20204;-79
2020/12/12 04:21:58;;;;;;;38.20;17.47;;;9.50;99.90;;;;;;4918239;29;20288;-83
2020/12/12 04:24:24;;;;;;;40.00;18.37;;;9.60;99.90;;;;;;4910516;29;20189;-87
2020/12/12 04:26:51;;;;;;;37.93;17.93;;;9.70;99.90;;;;;;4900289;29;20175;-79
2020/12/12 04:29:16;;;;;;;35.37;17.63;;;9.70;99.90;;;;;;4901258;29;20163;-90
2020/12/12 04:31:42;;;;;;;38.70;18.33;;;9.70;99.90;;;;;;4902439;29;20167;-80
2020/12/12 04:34:09;;;;;;;38.60;18.27;;;9.70;99.90;;;;;;4899403;29;20218;-80
2020/12/12 04:36:35;;;;;;;35.30;18.90;;;9.90;99.90;;;;;;4899496;29;20166;-79
2020/12/12 04:39:02;;;;;;;36.57;18.93;;;9.90;99.90;;;;;;4900040;29;20252;-88
2020/12/12 04:41:28;;;;;;;35.30;18.73;;;10.10;99.90;;;;;;4898356;29;20202;-90
2020/12/12 04:43:54;;;;;;;38.97;18.53;;;9.90;99.90;;;;;;4899205;29;20174;-80
2020/12/12 04:46:21;;;;;;;37.30;17.67;;;9.80;99.90;;;;;;4903252;29;20181;-82
2020/12/12 04:48:47;;;;;;;32.67;18.33;;;10.00;99.90;;;;;;4902834;29;20230;-79
2020/12/12 04:51:13;;;;;;;36.87;16.40;;;9.80;99.90;;;;;;4901146;29;20547;-79
2020/12/12 04:53:40;;;;;;;33.63;17.43;;;9.90;99.90;;;;;;4901772;29;20206;-80
2020/12/12 04:56:07;;;;;;;32.77;16.67;;;9.90;99.90;;;;;;4901260;29;20174;-84
2020/12/12 04:58:38;;;;;;;35.03;17.37;;;9.90;99.90;;;;;;4902535;29;20175;-81
2020/12/12 05:01:04;;;;;;;34.77;16.83;;;9.90;99.90;;;;;;4903233;29;20583;-79
2020/12/12 05:03:32;;;;;;;32.67;17.37;;;9.90;99.90;;;;;;4909985;29;20182;-80
2020/12/12 05:05:57;;;;;;;37.33;16.77;;;9.90;99.90;;;;;;4907230;29;20289;-80
2020/12/12 05:08:23;;;;;;;34.40;17.73;;;9.80;99.90;;;;;;4902915;29;20611;-80
2020/12/12 05:10:51;;;;;;;33.00;16.30;;;9.80;99.90;;;;;;4912120;29;20202;-78
2020/12/12 05:13:30;;;;;;;31.53;16.33;;;9.70;99.90;;;;;;4912888;29;20557;-80
2020/12/12 05:15:58;;;;;;;29.93;15.73;;;9.60;99.90;;;;;;4907321;29;20201;-79
2020/12/12 05:18:24;;;;;;;36.47;17.10;;;9.50;99.90;;;;;;4908227;29;20187;-80
2020/12/12 05:20:51;;;;;;;32.10;16.00;;;9.60;99.90;;;;;;4908899;29;20174;-80
2020/12/12 05:23:22;;;;;;;34.97;16.33;;;9.50;99.90;;;;;;4906201;29;20177;-85
2020/12/12 05:25:50;;;;;;;33.80;15.73;;;9.40;99.90;;;;;;4902398;29;20162;-79
2020/12/12 05:28:17;;;;;;;30.30;14.90;;;9.40;99.90;;;;;;4903790;29;20181;-85
2020/12/12 05:30:46;;;;;;;28.53;15.67;;;9.40;99.90;;;;;;4906347;29;20182;-80
2020/12/12 05:33:16;;;;;;;34.60;14.73;;;9.30;99.90;;;;;;4920064;29;20222;-78
2020/12/12 05:35:42;;;;;;;27.83;14.97;;;9.30;99.90;;;;;;4914471;29;20178;-79
2020/12/12 05:38:09;;;;;;;31.03;14.90;;;9.40;99.90;;;;;;4902234;29;20193;-79
2020/12/12 05:40:36;;;;;;;26.87;14.07;;;9.40;99.90;;;;;;4900748;29;20558;-89
2020/12/12 05:43:03;;;;;;;32.07;13.87;;;9.40;99.90;;;;;;4901700;29;20166;-89
2020/12/12 05:45:30;;;;;;;34.20;15.33;;;9.50;99.90;;;;;;4901873;29;20167;-86
2020/12/12 05:47:56;;;;;;;32.87;15.70;;;9.50;99.90;;;;;;4900986;29;20186;-89
2020/12/12 05:50:25;;;;;;;36.17;16.63;;;9.50;99.90;;;;;;4900492;29;20206;-82
2020/12/12 05:52:53;;;;;;;32.00;15.17;;;9.40;99.90;;;;;;4888188;29;20179;-86
2020/12/12 05:55:26;;;;;;;30.50;14.37;;;9.50;99.90;;;;;;4899662;29;20339;-85
2020/12/12 05:57:52;;;;;;;30.63;14.80;;;9.50;99.90;;;;;;4901534;29;20198;-80
2020/12/12 06:00:26;;;;;;;30.70;15.20;;;9.70;99.90;;;;;;4900783;29;20182;-81
2020/12/12 06:02:57;;;;;;;32.60;14.73;;;9.80;99.90;;;;;;4901542;29;20174;-81
2020/12/12 06:05:28;;;;;;;35.73;16.50;;;9.80;99.90;;;;;;4900623;29;20234;-79
2020/12/12 06:07:59;;;;;;;34.13;16.60;;;10.00;99.90;;;;;;4902112;29;20178;-80
2020/12/12 06:10:34;;;;;;;33.17;15.47;;;9.90;99.90;;;;;;4903246;29;20178;-81
2020/12/12 06:13:04;;;;;;;33.80;16.83;;;9.70;99.90;;;;;;4901435;29;20165;-86
2020/12/12 06:15:37;;;;;;;38.97;17.47;;;9.80;99.90;;;;;;4903304;29;20179;-91
2020/12/12 06:18:24;;;;;;;39.87;17.10;;;9.80;99.90;;;;;;4902401;29;20186;-85
2020/12/12 06:20:52;;;;;;;39.83;16.33;;;9.70;99.90;;;;;;4900870;29;20241;-81
2020/12/12 06:23:19;;;;;;;45.87;17.10;;;9.70;99.90;;;;;;4901404;29;20163;-80
2020/12/12 06:25:45;;;;;;;44.37;16.77;;;9.50;99.90;;;;;;4901783;29;20179;-79
2020/12/12 06:28:19;;;;;;;41.23;17.47;;;9.50;99.90;;;;;;4904993;29;20262;-80
2020/12/12 06:30:45;;;;;;;41.27;15.47;;;9.50;99.90;;;;;;4906895;29;20657;-83
2020/12/12 06:33:11;;;;;;;44.07;16.57;;;9.50;99.90;;;;;;4908352;29;20738;-82
2020/12/12 06:35:38;;;;;;;49.40;17.87;;;9.50;99.90;;;;;;4905060;29;20182;-80
2020/12/12 06:38:27;;;;;;;43.97;16.77;;;9.50;99.90;;;;;;4904216;29;20202;-80
2020/12/12 06:40:58;;;;;;;45.30;16.30;;;9.60;99.90;;;;;;4902403;29;20207;-80
2020/12/12 06:43:27;;;;;;;38.50;16.23;;;9.50;99.90;;;;;;4900515;29;20527;-79
2020/12/12 06:45:53;;;;;;;44.67;16.13;;;9.50;99.90;;;;;;4899811;29;20283;-82
2020/12/12 06:48:28;;;;;;;45.67;16.67;;;9.60;99.90;;;;;;4899343;29;20221;-79
2020/12/12 06:50:55;;;;;;;53.97;17.10;;;9.40;99.90;;;;;;4884494;29;20177;-81
2020/12/12 06:53:23;;;;;;;56.73;19.73;;;9.30;99.90;;;;;;4901637;29;20221;-81
2020/12/12 06:56:15;;;;;;;52.70;18.23;;;9.40;99.90;;;;;;4903427;29;20206;-84
2020/12/12 06:58:42;;;;;;;56.10;19.40;;;9.60;99.90;;;;;;4906971;29;20186;-89
2020/12/12 07:01:27;;;;;;;49.10;19.60;;;9.50;99.90;;;;;;4905401;29;20257;-80
2020/12/12 07:04:01;;;;;;;55.57;19.43;;;9.60;99.90;;;;;;4923043;29;20195;-78
2020/12/12 07:06:28;;;;;;;53.90;19.33;;;9.60;99.90;;;;;;4921095;29;20182;-83
2020/12/12 07:09:04;;;;;;;55.00;20.77;;;9.60;99.90;;;;;;4921840;29;20236;-81
2020/12/12 07:11:34;;;;;;;56.27;18.83;;;9.60;99.90;;;;;;4914577;29;20178;-80
2020/12/12 07:14:01;;;;;;;46.97;18.43;;;9.60;99.90;;;;;;4915787;29;20682;-79
2020/12/12 07:16:36;;;;;;;52.03;19.93;;;9.60;99.90;;;;;;4904791;29;20186;-84
2020/12/12 07:19:04;;;;;;;53.57;18.33;;;9.80;99.90;;;;;;4902360;29;20546;-81
2020/12/12 07:21:29;;;;;;;46.17;18.13;;;9.60;99.90;;;;;;4900131;29;20192;-85
2020/12/12 07:23:56;;;;;;;46.30;18.63;;;9.60;99.90;;;;;;4902421;29;20240;-84
2020/12/12 07:26:22;;;;;;;47.80;19.73;;;9.50;99.90;;;;;;4919800;29;20189;-81
2020/12/12 07:28:48;;;;;;;61.27;21.83;;;9.30;99.90;;;;;;4924743;29;20593;-80
2020/12/12 07:31:13;;;;;;;56.37;21.50;;;9.30;99.90;;;;;;4920107;29;20177;-81
2020/12/12 07:33:46;;;;;;;61.37;20.93;;;9.20;99.90;;;;;;4920131;29;20213;-80
2020/12/12 07:36:12;;;;;;;58.97;20.20;;;9.20;99.90;;;;;;4920798;29;20703;-79
2020/12/12 07:38:41;;;;;;;56.57;20.67;;;9.30;99.90;;;;;;4921163;29;20482;-83
2020/12/12 07:41:14;;;;;;;65.43;23.80;;;9.20;99.90;;;;;;4922005;29;20197;-82
2020/12/12 07:43:55;;;;;;;71.67;23.67;;;9.40;99.90;;;;;;4920421;29;20221;-83
2020/12/12 07:46:55;;;;;;;64.50;22.03;;;9.40;99.90;;;;;;4928157;29;20173;-79
2020/12/12 07:49:14;;;;;;;63.03;23.83;;;9.40;99.90;;;;;;4930172;29;20182;-78
2020/12/12 07:51:39;;;;;;;65.70;23.07;;;9.40;99.90;;;;;;4933570;29;20206;-79
2020/12/12 07:54:18;;;;;;;60.20;23.03;;;9.30;99.90;;;;;;4931754;29;20210;-80
2020/12/12 07:56:54;;;;;;;68.33;24.13;;;9.20;99.90;;;;;;4929010;29;20174;-78
2020/12/12 07:59:20;;;;;;;69.33;25.00;;;9.20;99.90;;;;;;4925880;29;20252;-79
2020/12/12 08:01:48;;;;;;;61.43;24.17;;;9.20;99.90;;;;;;4923986;29;20178;-80
2020/12/12 08:04:23;;;;;;;59.73;22.63;;;9.20;99.90;;;;;;4924118;29;20170;-82
2020/12/12 08:06:53;;;;;;;54.63;22.90;;;9.10;99.90;;;;;;4930103;29;20173;-84
2020/12/12 08:09:20;;;;;;;64.57;25.47;;;9.10;99.90;;;;;;4928340;29;20181;-83
2020/12/12 08:11:55;;;;;;;64.70;23.50;;;9.10;99.90;;;;;;4937697;29;20170;-78
2020/12/12 08:14:23;;;;;;;62.40;24.10;;;9.00;99.90;;;;;;4929003;29;20215;-79
2020/12/12 08:16:54;;;;;;;62.80;23.60;;;9.00;99.90;;;;;;4925865;29;20193;-79
2020/12/12 08:19:19;;;;;;;55.30;24.20;;;9.10;99.90;;;;;;4922956;29;20212;-79
2020/12/12 08:21:49;;;;;;;63.27;25.27;;;9.00;99.90;;;;;;4926560;29;20642;-80
2020/12/12 08:24:16;;;;;;;60.43;24.43;;;9.10;99.90;;;;;;4920706;29;20662;-79
2020/12/12 08:26:42;;;;;;;61.93;27.80;;;9.00;99.90;;;;;;4904374;29;20225;-78
2020/12/12 08:29:08;;;;;;;54.80;24.80;;;9.10;99.90;;;;;;4905032;29;20254;-83
2020/12/12 08:31:39;;;;;;;66.43;25.47;;;9.20;99.90;;;;;;4904451;29;20277;-79
2020/12/12 08:34:07;;;;;;;56.83;25.07;;;9.10;99.90;;;;;;4911481;29;20210;-80
2020/12/12 08:36:35;;;;;;;55.57;24.73;;;9.10;99.90;;;;;;4908610;29;20181;-80
2020/12/12 08:39:05;;;;;;;58.03;24.97;;;9.20;99.90;;;;;;4907187;29;20175;-80
2020/12/12 08:41:36;;;;;;;64.93;24.00;;;9.30;99.90;;;;;;4905083;29;20159;-82
2020/12/12 08:44:03;;;;;;;58.37;24.73;;;9.50;99.90;;;;;;4898631;29;20725;-82
2020/12/12 08:46:30;;;;;;;59.20;27.17;;;9.40;99.90;;;;;;4901855;29;20237;-80
2020/12/12 08:48:56;;;;;;;57.20;25.10;;;9.60;99.90;;;;;;4902740;29;20166;-81
2020/12/12 08:51:30;;;;;;;48.60;25.00;;;9.40;99.90;;;;;;4901661;29;20632;-80
2020/12/12 08:53:59;;;;;;;57.93;24.23;;;9.40;99.90;;;;;;4901133;29;20336;-81
2020/12/12 08:56:28;;;;;;;58.17;26.20;;;9.30;99.90;;;;;;4901180;29;20662;-80
2020/12/12 08:59:02;;;;;;;53.93;25.00;;;9.40;99.90;;;;;;4901663;29;20182;-80
2020/12/12 09:01:32;;;;;;;53.30;23.73;;;9.50;99.90;;;;;;4903484;29;20166;-80
2020/12/12 09:03:59;;;;;;;53.67;25.20;;;9.30;99.90;;;;;;4902339;29;20182;-81
2020/12/12 09:06:27;;;;;;;53.93;23.93;;;9.20;99.90;;;;;;4900319;29;20190;-80
2020/12/12 09:09:10;;;;;;;48.87;25.00;;;9.20;99.90;;;;;;4901225;29;20214;-80
2020/12/12 09:11:41;;;;;;;63.70;24.77;;;9.10;99.90;;;;;;4903921;29;20186;-85
2020/12/12 09:14:08;;;;;;;56.77;25.27;;;9.20;99.90;;;;;;4905356;29;20225;-79
2020/12/12 09:16:34;;;;;;;50.00;24.40;;;9.10;99.90;;;;;;4903507;29;20170;-80
2020/12/12 09:19:00;;;;;;;55.40;26.23;;;9.00;99.90;;;;;;4886129;29;20574;-80
2020/12/12 09:21:29;;;;;;;62.20;25.87;;;9.00;99.90;;;;;;4909681;29;20198;-80
2020/12/12 09:23:57;;;;;;;62.57;26.80;;;9.10;99.90;;;;;;4899205;29;20214;-81
2020/12/12 09:26:26;;;;;;;51.13;25.23;;;9.10;99.90;;;;;;4913513;29;20194;-84
2020/12/12 09:28:51;;;;;;;50.80;25.40;;;9.20;99.90;;;;;;4915547;29;20249;-83
2020/12/12 09:31:40;;;;;;;51.00;25.57;;;9.20;99.90;;;;;;4919008;29;20190;-87
2020/12/12 09:34:06;;;;;;;53.83;25.20;;;9.30;99.90;;;;;;4923967;29;20269;-80
2020/12/12 09:36:45;;;;;;;54.60;25.50;;;9.40;99.90;;;;;;4928852;29;20240;-81
2020/12/12 09:39:11;;;;;;;43.97;24.63;;;9.30;99.90;;;;;;4921176;28;20167;-84
2020/12/12 09:41:45;;;;;;;50.70;24.90;;;9.30;99.90;;;;;;4915695;29;20193;-87
2020/12/12 09:44:12;;;;;;;52.53;23.90;;;9.30;99.90;;;;;;4900093;29;20167;-82
2020/12/12 09:46:40;;;;;;;48.43;24.83;;;9.40;99.90;;;;;;4897319;29;20523;-87
2020/12/12 09:49:05;;;;;;;51.60;24.33;;;9.20;99.90;;;;;;4897946;29;20197;-83
2020/12/12 09:51:31;;;;;;;47.33;25.47;;;9.20;99.90;;;;;;4923397;29;20260;-86
2020/12/12 09:54:03;;;;;;;49.43;24.43;;;9.20;99.90;;;;;;4934692;29;20190;-88
2020/12/12 09:56:36;;;;;;;43.17;23.87;;;9.10;99.90;;;;;;4935325;29;20174;-86
2020/12/12 09:59:17;;;;;;;39.83;21.57;;;9.10;99.90;;;;;;4935716;29;20166;-83
2020/12/12 10:01:44;;;;;;;43.50;22.70;;;9.20;99.90;;;;;;4932650;29;20267;-83
2020/12/12 10:04:13;;;;;;;38.93;22.57;;;9.40;99.90;;;;;;4928287;29;20194;-83
2020/12/12 10:06:42;;;;;;;40.57;22.30;;;9.30;99.90;;;;;;4928405;29;20170;-85
2020/12/12 10:09:08;;;;;;;36.30;21.03;;;9.30;99.90;;;;;;4912184;29;20191;-83
2020/12/12 10:11:34;;;;;;;36.63;21.27;;;9.40;99.90;;;;;;4877122;29;20254;-83
2020/12/12 10:14:00;;;;;;;39.43;23.20;;;9.40;99.90;;;;;;4907659;29;20550;-87
2020/12/12 10:16:26;;;;;;;41.93;22.43;;;9.40;99.90;;;;;;4907327;29;20328;-84
2020/12/12 10:18:52;;;;;;;42.07;22.20;;;9.40;99.90;;;;;;4908643;29;20213;-86
2020/12/12 10:21:19;;;;;;;40.83;21.73;;;9.40;99.90;;;;;;4907133;29;20245;-86
2020/12/12 10:23:46;;;;;;;37.27;20.67;;;9.50;99.90;;;;;;4909194;29;20230;-85
2020/12/12 10:26:13;;;;;;;38.30;21.77;;;9.50;99.90;;;;;;4910203;29;20198;-85
2020/12/12 10:28:40;;;;;;;34.50;20.23;;;9.60;99.90;;;;;;4911567;29;20178;-86
2020/12/12 10:31:05;;;;;;;35.27;20.97;;;9.60;99.90;;;;;;4914914;29;20372;-87
2020/12/12 10:33:31;;;;;;;38.47;20.80;;;9.60;99.90;;;;;;4911779;29;20693;-85
2020/12/12 10:36:05;;;;;;;39.23;21.73;;;9.60;99.90;;;;;;4910882;29;20170;-86
2020/12/12 10:38:35;;;;;;;38.10;20.93;;;9.60;99.90;;;;;;4898994;29;20201;-85
2020/12/12 10:41:11;;;;;;;39.63;21.43;;;9.60;99.90;;;;;;4896558;29;20893;-85
2020/12/12 10:43:39;;;;;;;39.43;20.33;;;9.60;99.90;;;;;;4914748;29;20182;-88
2020/12/12 10:46:06;;;;;;;38.40;21.07;;;9.70;99.90;;;;;;4913642;29;20182;-85
2020/12/12 10:49:09;;;;;;;39.83;22.73;;;9.80;99.90;;;;;;4912270;29;20210;-85
2020/12/12 10:51:57;;;;;;;40.53;21.37;;;9.90;99.90;;;;;;4857132;29;20264;-88
2020/12/12 10:55:24;;;;;;;39.00;21.53;;;9.90;99.90;;;;;;4911844;29;20217;-93
2020/12/12 10:57:40;;;;;;;35.73;21.47;;;10.00;99.90;;;;;;4915569;29;20190;-90
2020/12/12 11:03:57;;;;;;;38.40;21.50;;;9.90;99.90;;;;;;4916087;29;20665;-89
2020/12/12 11:07:02;;;;;;;34.10;21.07;;;10.00;99.90;;;;;;4914650;29;20202;-89
2020/12/12 11:10:02;;;;;;;36.67;21.17;;;10.20;99.90;;;;;;4914969;29;20281;-88
2020/12/12 11:12:50;;;;;;;41.10;21.30;;;10.10;99.90;;;;;;4911448;29;20186;-91
2020/12/12 11:15:17;;;;;;;41.87;22.80;;;10.20;99.90;;;;;;4878280;29;20720;-86
2020/12/12 11:17:47;;;;;;;41.03;23.23;;;10.20;99.90;;;;;;4895262;29;20212;-89
2020/12/12 11:20:19;;;;;;;43.43;24.27;;;10.20;99.90;;;;;;4917240;29;20206;-93
2020/12/12 11:22:47;;;;;;;37.90;22.60;;;10.20;99.90;;;;;;4913381;29;20186;-86
2020/12/12 11:25:15;;;;;;;39.70;23.20;;;10.20;99.90;;;;;;4928241;29;20230;-84
2020/12/12 11:27:41;;;;;;;37.50;22.77;;;10.10;99.90;;;;;;4919775;28;20174;-88
2020/12/12 11:30:27;;;;;;;43.33;24.20;;;10.10;99.90;;;;;;4940903;28;20201;-86
2020/12/12 11:32:59;;;;;;;39.90;23.33;;;10.10;99.90;;;;;;4940362;28;20181;-87
2020/12/12 11:38:34;;;;;;;38.73;21.73;;;10.10;99.90;;;;;;4883131;29;20168;-89
2020/12/12 11:47:23;;;;;;;38.83;21.87;;;10.10;99.90;;;;;;4920167;29;20189;-81
2020/12/12 11:50:29;;;;;;;40.37;22.57;;;10.20;99.90;;;;;;4921786;29;20156;-81
2020/12/12 11:53:12;;;;;;;39.13;22.43;;;10.20;99.90;;;;;;4915549;29;20172;-82
2020/12/12 11:55:46;;;;;;;39.53;22.63;;;10.20;99.90;;;;;;4913534;29;20210;-85
2020/12/12 11:58:13;;;;;;;38.03;22.53;;;10.20;99.90;;;;;;4916442;29;20181;-85
2020/12/12 12:00:44;;;;;;;39.07;22.70;;;10.30;99.90;;;;;;4919844;29;20155;-85
2020/12/12 12:03:13;;;;;;;41.03;23.90;;;10.40;99.90;;;;;;4921505;29;20223;-86
2020/12/12 12:05:42;;;;;;;34.63;21.47;;;10.40;99.90;;;;;;4920332;29;20191;-83
2020/12/12 12:08:21;;;;;;;44.40;23.67;;;10.60;99.90;;;;;;4918776;29;20174;-87
2020/12/12 12:14:07;;;;;;;42.63;22.27;;;10.50;99.90;;;;;;4929131;29;20245;-89
2020/12/12 12:20:00;;;;;;;46.67;33.70;;;10.40;99.90;;;;;;4933687;29;20217;-89
2020/12/12 12:22:28;;;;;;;38.93;24.37;;;10.50;99.90;;;;;;4898723;29;20198;-83
2020/12/12 12:24:57;;;;;;;38.90;22.40;;;10.50;99.90;;;;;;4895395;29;20291;-88
2020/12/12 12:27:41;;;;;;;39.30;22.37;;;10.50;99.90;;;;;;4918056;29;20186;-91
2020/12/12 12:31:22;;;;;;;42.57;22.47;;;10.40;99.90;;;;;;4917140;29;20178;-88
2020/12/12 12:34:00;;;;;;;37.63;21.93;;;10.50;99.90;;;;;;4917237;29;20222;-84
2020/12/12 12:36:40;;;;;;;41.63;22.33;;;10.50;99.90;;;;;;4889870;29;20178;-84
2020/12/12 12:39:11;;;;;;;43.37;23.97;;;10.50;99.90;;;;;;4905415;29;20185;-92
2020/12/12 12:41:40;;;;;;;41.00;22.17;;;10.50;99.90;;;;;;4897515;29;20182;-89
2020/12/12 12:44:10;;;;;;;44.00;23.73;;;10.40;99.90;;;;;;4920602;29;20185;-85
2020/12/12 12:46:49;;;;;;;44.30;24.40;;;10.70;99.90;;;;;;4905475;29;20173;-92
2020/12/12 12:49:22;;;;;;;44.43;24.77;;;10.50;99.90;;;;;;4883254;29;20175;-89
2020/12/12 12:51:53;;;;;;;44.63;24.97;;;10.50;99.90;;;;;;4901201;29;20647;-89
2020/12/12 12:54:20;;;;;;;42.23;24.70;;;10.50;99.90;;;;;;4903028;29;20210;-88
2020/12/12 12:56:51;;;;;;;47.50;24.87;;;10.50;99.90;;;;;;4920820;29;20163;-87
2020/12/12 12:59:22;;;;;;;50.30;26.80;;;10.70;99.90;;;;;;4920416;29;20175;-87
2020/12/12 13:02:15;;;;;;;48.97;26.43;;;10.70;99.90;;;;;;4912561;29;20245;-87
2020/12/12 13:04:41;;;;;;;44.87;25.60;;;10.50;99.90;;;;;;4939811;28;20158;-88
2020/12/12 13:07:07;;;;;;;46.83;25.53;;;10.40;99.90;;;;;;4913333;29;20171;-90